createdAt,value
2023-05-25T00:01:01.314Z,98641.12
2023-05-25T00:03:31.728Z,98646.16
2023-05-25T00:06:02.482Z,98646.73
2023-05-25T00:08:30.320Z,98650.35
2023-05-25T00:10:57.466Z,98646.00
2023-05-25T00:13:25.620Z,98643.05
2023-05-25T00:15:53.220Z,98653.48
2023-05-25T00:18:20.380Z,98652.91
2023-05-25T00:20:47.958Z,98654.19
2023-05-25T00:23:15.279Z,98656.04
2023-05-25T00:25:42.708Z,98658.04
2023-05-25T00:28:11.553Z,98655.24
2023-05-25T00:30:39.162Z,98656.42
2023-05-25T00:33:07.054Z,98657.39
2023-05-25T00:35:34.506Z,98655.56
2023-05-25T00:38:01.587Z,98657.23
2023-05-25T00:40:28.705Z,98658.36
2023-05-25T00:42:56.213Z,98659.11
2023-05-25T00:45:23.634Z,98662.00
2023-05-25T00:47:51.746Z,98668.66
2023-05-25T00:50:19.575Z,98674.66
2023-05-25T00:52:46.664Z,98680.80
2023-05-25T00:55:13.766Z,98678.80
2023-05-25T00:57:41.651Z,98670.56
2023-05-25T01:00:13.385Z,98669.82
2023-05-25T01:02:42.666Z,98667.89
2023-05-25T01:05:10.230Z,98665.11
2023-05-25T01:07:37.730Z,98660.44
2023-05-25T01:10:09.236Z,98672.30
2023-05-25T01:12:38.029Z,98673.81
2023-05-25T01:15:06.632Z,98671.20
2023-05-25T01:17:38.263Z,98672.98
2023-05-25T01:20:11.677Z,98661.38
2023-05-25T01:22:54.585Z,98666.28
2023-05-25T01:25:29.032Z,98671.77
2023-05-25T01:28:28.077Z,98675.39
2023-05-25T01:30:55.777Z,98671.45
2023-05-25T01:33:22.849Z,98678.27
2023-05-25T01:35:51.274Z,98679.20
2023-05-25T01:38:18.628Z,98683.75
2023-05-25T01:40:45.701Z,98688.77
2023-05-25T01:43:12.760Z,98687.83
2023-05-25T01:45:39.932Z,98689.27
2023-05-25T01:48:13.536Z,98694.71
2023-05-25T01:51:01.446Z,98696.89
2023-05-25T01:53:30.658Z,98699.54
2023-05-25T01:56:05.348Z,98699.77
2023-05-25T01:58:44.561Z,98701.98
2023-05-25T02:01:14.179Z,98704.39
2023-05-25T02:03:41.816Z,98707.50
2023-05-25T02:06:09.261Z,98700.33
2023-05-25T02:08:36.575Z,98704.34
2023-05-25T02:11:04.194Z,98704.00
2023-05-25T02:13:31.987Z,98703.15
2023-05-25T02:15:59.675Z,98706.55
2023-05-25T02:18:28.110Z,98709.19
2023-05-25T02:20:55.351Z,98709.06
2023-05-25T02:23:22.551Z,98709.39
2023-05-25T02:25:51.848Z,98713.73
2023-05-25T02:28:19.267Z,98719.34
2023-05-25T02:30:46.433Z,98722.77
2023-05-25T02:33:14.008Z,98720.30
2023-05-25T02:35:42.029Z,98715.14
2023-05-25T02:38:10.595Z,98716.37
2023-05-25T02:40:39.019Z,98720.69
2023-05-25T02:43:06.288Z,98723.73
2023-05-25T02:45:33.890Z,98722.17
2023-05-25T02:48:01.356Z,98724.48
2023-05-25T02:50:29.232Z,98726.25
2023-05-25T02:52:56.917Z,98729.15
2023-05-25T02:55:26.243Z,98726.38
2023-05-25T02:57:53.658Z,98729.98
2023-05-25T03:00:42.958Z,98731.23
2023-05-25T03:03:10.307Z,98730.39
2023-05-25T03:05:38.690Z,98733.05
2023-05-25T03:08:06.253Z,98734.84
2023-05-25T03:10:35.093Z,98735.20
2023-05-25T03:13:02.584Z,98732.88
2023-05-25T03:15:30.775Z,98733.72
2023-05-25T03:18:01.341Z,98734.58
2023-05-25T03:20:29.939Z,98732.73
2023-05-25T03:22:57.195Z,98738.05
2023-05-25T03:25:24.871Z,98740.89
2023-05-25T03:27:54.089Z,98744.43
2023-05-25T03:30:22.449Z,98745.98
2023-05-25T03:32:49.570Z,98746.33
2023-05-25T03:35:16.866Z,98747.55
2023-05-25T03:37:44.092Z,98749.92
2023-05-25T03:40:12.085Z,98752.77
2023-05-25T03:42:39.592Z,98753.01
2023-05-25T03:45:09.289Z,98757.88
2023-05-25T03:47:37.257Z,98759.31
2023-05-25T03:50:06.107Z,98757.08
2023-05-25T03:52:35.192Z,98759.40
2023-05-25T03:55:04.715Z,98762.58
2023-05-25T03:57:31.839Z,98763.05
2023-05-25T03:59:59.441Z,98758.03
2023-05-25T04:02:26.755Z,98758.52
2023-05-25T04:04:57.141Z,98761.02
2023-05-25T04:07:27.732Z,98760.42
2023-05-25T04:09:54.874Z,98764.25
2023-05-25T04:12:22.190Z,98763.76
2023-05-25T04:14:49.382Z,98762.29
2023-05-25T04:17:19.092Z,98764.46
2023-05-25T04:19:46.574Z,98768.13
2023-05-25T04:22:13.849Z,98771.17
2023-05-25T04:24:42.106Z,98771.67
2023-05-25T04:27:09.410Z,98772.95
2023-05-25T04:29:38.343Z,98775.80
2023-05-25T04:32:19.994Z,98777.73
2023-05-25T04:34:52.426Z,98778.63
2023-05-25T04:37:27.428Z,98777.95
2023-05-25T04:39:57.789Z,98782.69
2023-05-25T04:42:25.789Z,98786.15
2023-05-25T04:44:57.449Z,98788.10
2023-05-25T04:47:26.134Z,98785.71
2023-05-25T04:49:54.550Z,98787.02
2023-05-25T04:52:23.383Z,98788.20
2023-05-25T04:54:51.777Z,98787.52
2023-05-25T04:57:19.025Z,98783.58
2023-05-25T04:59:46.997Z,98785.82
2023-05-25T05:02:14.081Z,98785.63
2023-05-25T05:04:41.614Z,98787.52
2023-05-25T05:07:09.277Z,98790.08
2023-05-25T05:09:36.951Z,98793.61
2023-05-25T05:12:04.718Z,98790.66
2023-05-25T05:14:36.697Z,98797.08
2023-05-25T05:17:04.712Z,98800.63
2023-05-25T05:19:33.349Z,98799.84
2023-05-25T05:22:00.488Z,98803.11
2023-05-25T05:24:27.724Z,98802.53
2023-05-25T05:26:59.332Z,98800.49
2023-05-25T05:29:37.714Z,98807.70
2023-05-25T05:32:05.269Z,98806.42
2023-05-25T05:34:33.502Z,98812.73
2023-05-25T05:37:04.766Z,98814.27
2023-05-25T05:39:32.121Z,98809.33
2023-05-25T05:41:59.704Z,98810.14
2023-05-25T05:44:29.335Z,98812.46
2023-05-25T05:47:01.374Z,98813.20
2023-05-25T05:49:29.864Z,98813.35
2023-05-25T05:51:57.648Z,98815.23
2023-05-25T05:54:24.861Z,98813.77
2023-05-25T05:56:52.791Z,98809.33
2023-05-25T05:59:21.464Z,98809.94
2023-05-25T06:01:48.730Z,98814.70
2023-05-25T06:04:16.207Z,98821.05
2023-05-25T06:06:45.429Z,98821.52
2023-05-25T06:09:12.918Z,98823.27
2023-05-25T06:11:40.734Z,98825.41
2023-05-25T06:14:08.280Z,98825.71
2023-05-25T06:16:37.030Z,98827.37
2023-05-25T06:19:04.929Z,98834.05
2023-05-25T06:21:32.772Z,98831.54
2023-05-25T06:23:59.749Z,98836.02
2023-05-25T06:26:27.399Z,98835.16
2023-05-25T06:28:54.785Z,98835.26
2023-05-25T06:31:22.358Z,98836.92
2023-05-25T06:33:49.515Z,98836.33
2023-05-25T06:36:16.749Z,98835.98
2023-05-25T06:38:44.105Z,98837.32
2023-05-25T06:41:15.224Z,98834.98
2023-05-25T06:43:43.097Z,98832.86
2023-05-25T06:46:18.316Z,98837.11
2023-05-25T06:48:46.242Z,98839.80
2023-05-25T06:51:13.640Z,98839.75
2023-05-25T06:53:41.394Z,98840.52
2023-05-25T06:56:09.319Z,98844.83
2023-05-25T06:58:36.803Z,98843.70
2023-05-25T07:01:04.004Z,98847.32
2023-05-25T07:03:32.832Z,98846.45
2023-05-25T07:05:59.960Z,98853.52
2023-05-25T07:08:27.020Z,98848.30
2023-05-25T07:10:54.340Z,98847.90
2023-05-25T07:13:22.004Z,98844.21
2023-05-25T07:15:49.502Z,98844.92
2023-05-25T07:18:16.636Z,98840.83
2023-05-25T07:20:44.127Z,98843.94
2023-05-25T07:23:11.852Z,98841.61
2023-05-25T07:25:39.002Z,98843.89
2023-05-25T07:28:06.923Z,98837.05
2023-05-25T07:30:34.654Z,98833.44
2023-05-25T07:33:02.276Z,98824.88
2023-05-25T07:35:29.574Z,98825.66
2023-05-25T07:38:00.702Z,98823.02
2023-05-25T07:40:29.264Z,98829.37
2023-05-25T07:42:56.343Z,98828.59
2023-05-25T07:45:23.492Z,98828.81
2023-05-25T07:47:50.759Z,98829.48
2023-05-25T07:50:17.991Z,98833.66
2023-05-25T07:52:45.167Z,98839.06
2023-05-25T07:55:12.213Z,98838.05
2023-05-25T07:57:40.042Z,98835.59
2023-05-25T08:00:11.269Z,98831.67
2023-05-25T08:02:42.650Z,98834.79
2023-05-25T08:05:10.235Z,98830.02
2023-05-25T08:07:38.248Z,98832.11
2023-05-25T08:10:06.717Z,98833.77
2023-05-25T08:12:47.965Z,98833.55
2023-05-25T08:15:16.879Z,98828.41
2023-05-25T08:17:44.515Z,98829.17
2023-05-25T08:20:12.280Z,98827.12
2023-05-25T08:22:40.240Z,98830.29
2023-05-25T08:25:08.213Z,98828.88
2023-05-25T08:27:36.747Z,98827.08
2023-05-25T08:30:06.089Z,98830.10
2023-05-25T08:32:33.659Z,98825.11
2023-05-25T08:35:02.049Z,98824.95
2023-05-25T08:37:30.639Z,98824.23
2023-05-25T08:39:58.012Z,98826.27
2023-05-25T08:42:25.138Z,98824.58
2023-05-25T08:44:52.282Z,98818.38
2023-05-25T08:47:20.567Z,98820.27
2023-05-25T08:49:48.829Z,98821.12
2023-05-25T08:52:21.878Z,98817.15
2023-05-25T08:54:51.201Z,98810.11
2023-05-25T08:57:26.176Z,98808.52
2023-05-25T09:00:13.109Z,98815.74
2023-05-25T09:03:29.203Z,98813.16
2023-05-25T09:05:58.164Z,98812.04
2023-05-25T09:08:25.684Z,98812.80
2023-05-25T09:10:52.871Z,98809.87
2023-05-25T09:13:22.895Z,98807.22
2023-05-25T09:15:50.804Z,98807.81
2023-05-25T09:18:17.949Z,98808.84
2023-05-25T09:20:47.119Z,98808.58
2023-05-25T09:23:15.306Z,98806.37
2023-05-25T09:25:42.634Z,98807.00
2023-05-25T09:28:25.469Z,98806.27
2023-05-25T09:30:54.805Z,98806.66
2023-05-25T09:33:21.915Z,98807.03
2023-05-25T09:35:49.257Z,98805.10
2023-05-25T09:38:17.039Z,98810.41
2023-05-25T09:40:44.808Z,98810.61
2023-05-25T09:43:15.758Z,98806.77
2023-05-25T09:45:49.482Z,98812.63
2023-05-25T09:48:17.961Z,98813.33
2023-05-25T09:50:48.045Z,98813.33
2023-05-25T09:53:18.482Z,98810.58
2023-05-25T09:58:18.296Z,98808.82
2023-05-25T10:00:46.521Z,98802.77
2023-05-25T10:03:15.572Z,98798.88
2023-05-25T10:05:42.748Z,98797.08
2023-05-25T10:08:10.048Z,98795.58
2023-05-25T10:10:37.555Z,98789.35
2023-05-25T10:13:05.100Z,98786.07
2023-05-25T10:15:32.157Z,98785.91
2023-05-25T10:17:59.455Z,98783.02
2023-05-25T10:20:56.260Z,98777.90
2023-05-25T10:23:15.159Z,98772.77
2023-05-25T10:25:46.089Z,98764.16
2023-05-25T10:28:28.450Z,98765.48
2023-05-25T10:30:56.999Z,98755.32
2023-05-25T10:33:24.163Z,98757.64
2023-05-25T10:36:02.954Z,98751.98
2023-05-25T10:38:37.841Z,98750.54
2023-05-25T10:41:07.106Z,98747.70
2023-05-25T10:43:35.211Z,98743.34
2023-05-25T10:46:02.381Z,98743.38
2023-05-25T10:48:36.762Z,98737.52
2023-05-25T10:51:04.328Z,98732.34
2023-05-25T10:53:31.961Z,98727.21
2023-05-25T10:56:10.067Z,98728.75
2023-05-25T10:58:41.358Z,98724.95
2023-05-25T11:01:09.808Z,98719.99
2023-05-25T11:03:56.870Z,98716.15
2023-05-25T11:06:47.162Z,98716.30
2023-05-25T11:09:33.304Z,98713.61
2023-05-25T11:12:02.468Z,98713.66
2023-05-25T11:14:31.510Z,98709.35
2023-05-25T11:17:11.813Z,98708.63
2023-05-25T11:19:54.079Z,98707.42
2023-05-25T11:22:30.899Z,98705.27
2023-05-25T11:25:00.215Z,98700.55
2023-05-25T11:27:31.032Z,98695.80
2023-05-25T11:29:58.902Z,98697.48
2023-05-25T11:32:27.131Z,98696.84
2023-05-25T11:34:55.315Z,98695.20
2023-05-25T11:37:24.951Z,98697.09
2023-05-25T11:39:52.636Z,98690.80
2023-05-25T11:42:24.308Z,98689.29
2023-05-25T11:45:38.495Z,98681.67
2023-05-25T11:48:06.179Z,98681.44
2023-05-25T11:50:34.147Z,98684.32
2023-05-25T11:53:06.094Z,98678.05
2023-05-25T11:55:34.544Z,98669.08
2023-05-25T11:58:02.303Z,98666.54
2023-05-25T12:00:29.664Z,98664.00
2023-05-25T12:02:57.795Z,98665.58
2023-05-25T12:05:25.185Z,98666.06
2023-05-25T12:07:52.368Z,98666.22
2023-05-25T12:10:19.548Z,98662.07
2023-05-25T12:12:51.053Z,98664.45
2023-05-25T12:15:21.953Z,98661.45
2023-05-25T12:17:49.278Z,98659.50
2023-05-25T12:20:17.003Z,98657.77
2023-05-25T12:22:45.015Z,98657.70
2023-05-25T12:25:12.682Z,98656.75
2023-05-25T12:27:43.914Z,98646.85
2023-05-25T12:30:11.575Z,98656.84
2023-05-25T12:32:53.148Z,98654.20
2023-05-25T12:35:20.491Z,98654.34
2023-05-25T12:41:06.769Z,98675.30
2023-05-25T12:43:43.148Z,98687.44
2023-05-25T12:46:10.726Z,98690.95
2023-05-25T12:48:38.896Z,98691.77
2023-05-25T12:51:10.141Z,98687.56
2023-05-25T12:53:50.603Z,98689.03
2023-05-25T12:56:17.870Z,98689.00
2023-05-25T12:58:45.064Z,98689.83
2023-05-25T13:01:12.501Z,98695.34
2023-05-25T13:03:39.831Z,98699.52
2023-05-25T13:06:07.150Z,98695.48
2023-05-25T13:08:34.769Z,98691.71
2023-05-25T13:11:03.873Z,98686.70
2023-05-25T13:13:31.149Z,98683.63
2023-05-25T13:15:58.561Z,98689.48
2023-05-25T13:18:26.735Z,98688.30
2023-05-25T13:20:56.496Z,98682.54
2023-05-25T13:23:25.230Z,98688.31
2023-05-25T13:25:52.462Z,98691.52
2023-05-25T13:28:19.687Z,98689.77
2023-05-25T13:30:47.113Z,98684.41
2023-05-25T13:33:14.353Z,98685.52
2023-05-25T13:35:46.441Z,98686.42
2023-05-25T13:38:15.855Z,98680.36
2023-05-25T13:40:45.053Z,98678.84
2023-05-25T13:43:12.139Z,98678.76
2023-05-25T13:45:41.851Z,98674.95
2023-05-25T13:48:09.634Z,98678.21
2023-05-25T13:50:40.484Z,98678.03
2023-05-25T13:53:07.473Z,98666.38
2023-05-25T13:55:36.113Z,98668.36
2023-05-25T13:58:05.048Z,98664.87
2023-05-25T14:00:33.046Z,98658.35
2023-05-25T14:03:00.522Z,98648.67
2023-05-25T14:05:28.652Z,98643.48
2023-05-25T14:07:56.773Z,98638.56
2023-05-25T14:10:24.180Z,98642.77
2023-05-25T14:12:51.757Z,98644.86
2023-05-25T14:15:19.041Z,98642.88
2023-05-25T14:17:46.208Z,98641.70
2023-05-25T14:20:16.345Z,98643.90
2023-05-25T14:22:43.564Z,98650.35
2023-05-25T14:25:10.672Z,98653.14
2023-05-25T14:27:38.791Z,98649.33
2023-05-25T14:30:07.521Z,98647.36
2023-05-25T14:32:50.088Z,98651.77
2023-05-25T14:35:17.504Z,98653.29
2023-05-25T14:37:44.617Z,98656.51
2023-05-25T14:40:12.488Z,98660.35
2023-05-25T14:42:40.497Z,98672.71
2023-05-25T14:45:10.074Z,98674.27
2023-05-25T14:47:38.792Z,98676.97
2023-05-25T14:50:06.810Z,98677.60
2023-05-25T14:52:34.241Z,98677.38
2023-05-25T14:55:01.321Z,98673.48
2023-05-25T14:57:28.532Z,98675.01
2023-05-25T14:59:56.171Z,98673.56
2023-05-25T15:02:23.323Z,98674.13
2023-05-25T15:04:50.954Z,98680.64
2023-05-25T15:07:18.161Z,98684.90
2023-05-25T15:09:45.579Z,98693.93
2023-05-25T15:12:13.143Z,98693.77
2023-05-25T15:14:42.400Z,98696.59
2023-05-25T15:17:09.982Z,98691.59
2023-05-25T15:19:37.479Z,98693.92
2023-05-25T15:22:04.884Z,98693.16
2023-05-25T15:24:32.682Z,98693.67
2023-05-25T15:26:59.864Z,98694.54
2023-05-25T15:29:27.155Z,98697.17
2023-05-25T15:31:54.377Z,98692.89
2023-05-25T15:34:22.497Z,98692.05
2023-05-25T15:36:49.703Z,98686.81
2023-05-25T15:39:16.769Z,98687.96
2023-05-25T15:41:43.874Z,98686.02
2023-05-25T15:44:12.848Z,98695.63
2023-05-25T15:46:41.206Z,98694.88
2023-05-25T15:49:11.373Z,98697.61
2023-05-25T15:51:40.117Z,98696.69
2023-05-25T15:54:08.018Z,98693.41
2023-05-25T15:56:36.352Z,98696.38
2023-05-25T15:59:04.046Z,98701.90
2023-05-25T16:01:36.924Z,98699.08
2023-05-25T16:04:04.697Z,98699.73
2023-05-25T16:06:32.263Z,98695.15
2023-05-25T16:08:59.350Z,98702.98
2023-05-25T16:11:31.792Z,98706.48
2023-05-25T16:13:59.328Z,98705.98
2023-05-25T16:16:26.649Z,98704.57
2023-05-25T16:18:54.224Z,98707.60
2023-05-25T16:21:21.738Z,98705.86
2023-05-25T16:23:48.744Z,98702.79
2023-05-25T16:26:17.646Z,98705.93
2023-05-25T16:28:44.889Z,98704.08
2023-05-25T16:31:13.558Z,98703.88
2023-05-25T16:33:42.013Z,98699.30
2023-05-25T16:36:09.070Z,98696.52
2023-05-25T16:38:36.190Z,98695.92
2023-05-25T16:41:03.260Z,98691.42
2023-05-25T16:43:30.925Z,98685.98
2023-05-25T16:45:58.273Z,98690.34
2023-05-25T16:48:26.287Z,98691.46
2023-05-25T16:50:53.389Z,98689.92
2023-05-25T16:53:20.419Z,98690.15
2023-05-25T16:55:47.609Z,98693.01
2023-05-25T16:58:14.858Z,98692.08
2023-05-25T17:00:42.766Z,98697.01
2023-05-25T17:03:10.050Z,98706.20
2023-05-25T17:05:37.355Z,98698.93
2023-05-25T17:08:04.472Z,98700.73
2023-05-25T17:10:32.034Z,98699.59
2023-05-25T17:12:59.229Z,98699.73
2023-05-25T17:15:26.910Z,98705.13
2023-05-25T17:17:54.335Z,98708.21
2023-05-25T17:20:21.529Z,98710.05
2023-05-25T17:22:49.886Z,98709.02
2023-05-25T17:25:17.039Z,98709.77
2023-05-25T17:27:44.155Z,98713.95
2023-05-25T17:30:11.808Z,98720.84
2023-05-25T17:32:41.156Z,98718.41
2023-05-25T17:35:09.036Z,98714.86
2023-05-25T17:37:36.418Z,98718.73
2023-05-25T17:40:05.050Z,98718.43
2023-05-25T17:42:32.393Z,98717.09
2023-05-25T17:44:59.633Z,98722.17
2023-05-25T17:47:27.480Z,98728.71
2023-05-25T17:49:54.588Z,98726.52
2023-05-25T17:52:23.281Z,98731.89
2023-05-25T17:54:53.550Z,98731.84
2023-05-25T17:57:20.734Z,98733.38
2023-05-25T17:59:47.917Z,98735.09
2023-05-25T18:02:15.187Z,98735.91
2023-05-25T18:04:42.353Z,98733.56
2023-05-25T18:07:09.408Z,98736.14
2023-05-25T18:09:36.503Z,98733.61
2023-05-25T18:12:03.829Z,98738.77
2023-05-25T18:14:35.313Z,98740.56
2023-05-25T18:17:02.848Z,98742.36
2023-05-25T18:19:30.153Z,98749.52
2023-05-25T18:21:57.517Z,98755.52
2023-05-25T18:24:24.720Z,98755.34
2023-05-25T18:26:51.805Z,98761.45
2023-05-25T18:29:19.039Z,98763.27
2023-05-25T18:31:48.859Z,98763.40
2023-05-25T18:34:16.372Z,98767.04
2023-05-25T18:36:46.557Z,98774.46
2023-05-25T18:39:13.605Z,98779.96
2023-05-25T18:41:42.355Z,98780.33
2023-05-25T18:44:10.067Z,98779.94
2023-05-25T18:46:40.799Z,98782.27
2023-05-25T18:49:08.143Z,98786.65
2023-05-25T18:51:35.285Z,98788.67
2023-05-25T18:54:02.806Z,98795.89
2023-05-25T18:56:30.031Z,98796.95
2023-05-25T18:58:57.236Z,98801.73
2023-05-25T19:01:25.641Z,98799.96
2023-05-25T19:03:56.002Z,98802.23
2023-05-25T19:06:25.593Z,98805.42
2023-05-25T19:08:52.696Z,98803.54
2023-05-25T19:11:20.377Z,98806.41
2023-05-25T19:13:48.114Z,98808.40
2023-05-25T19:16:15.358Z,98808.50
2023-05-25T19:18:42.548Z,98808.92
2023-05-25T19:21:09.871Z,98810.34
2023-05-25T19:23:37.364Z,98807.52
2023-05-25T19:26:04.462Z,98806.41
2023-05-25T19:28:32.236Z,98808.86
2023-05-25T19:30:59.552Z,98819.13
2023-05-25T19:33:26.834Z,98823.71
2023-05-25T19:35:53.996Z,98823.19
2023-05-25T19:40:48.429Z,98822.32
2023-05-25T19:43:15.970Z,98821.09
2023-05-25T19:45:44.025Z,98820.61
2023-05-25T19:48:11.591Z,98816.91
2023-05-25T19:50:38.938Z,98822.66
2023-05-25T19:53:06.920Z,98819.79
2023-05-25T19:55:36.937Z,98824.11
2023-05-25T19:58:04.278Z,98823.61
2023-05-25T20:00:32.379Z,98823.11
2023-05-25T20:02:59.606Z,98825.13
2023-05-25T20:05:27.058Z,98825.50
2023-05-25T20:07:56.667Z,98826.63
2023-05-25T20:10:23.939Z,98824.14
2023-05-25T20:12:51.279Z,98821.90
2023-05-25T20:15:18.583Z,98827.48
2023-05-25T20:17:45.736Z,98823.96
2023-05-25T20:20:13.064Z,98822.81
2023-05-25T20:22:41.152Z,98823.68
2023-05-25T20:25:08.430Z,98826.48
2023-05-25T20:27:35.698Z,98820.27
2023-05-25T20:30:03.286Z,98823.11
2023-05-25T20:32:31.530Z,98820.63
2023-05-25T20:34:58.661Z,98820.27
2023-05-25T20:37:25.824Z,98819.56
2023-05-25T20:39:52.957Z,98820.33
2023-05-25T20:42:19.953Z,98816.05
2023-05-25T20:44:47.246Z,98818.27
2023-05-25T20:47:14.286Z,98817.83
2023-05-25T20:49:41.681Z,98820.95
2023-05-25T20:52:08.689Z,98820.97
2023-05-25T20:54:36.957Z,98819.84
2023-05-25T20:57:04.505Z,98818.67
2023-05-25T20:59:32.128Z,98816.79
2023-05-25T21:01:59.492Z,98821.73
2023-05-25T21:04:27.062Z,98819.26
2023-05-25T21:06:54.396Z,98822.48
2023-05-25T21:09:22.493Z,98822.38
2023-05-25T21:11:49.787Z,98822.75
2023-05-25T21:14:16.907Z,98818.41
2023-05-25T21:16:44.366Z,98816.80
2023-05-25T21:19:11.986Z,98823.32
2023-05-25T21:21:39.349Z,98821.38
2023-05-25T21:24:06.598Z,98824.63
2023-05-25T21:26:33.794Z,98823.67
2023-05-25T21:29:00.973Z,98817.29
2023-05-25T21:31:28.190Z,98820.41
2023-05-25T21:33:55.415Z,98818.46
2023-05-25T21:36:22.569Z,98821.74
2023-05-25T21:38:49.617Z,98817.70
2023-05-25T21:41:17.146Z,98821.98
2023-05-25T21:43:44.247Z,98822.75
2023-05-25T21:46:11.272Z,98820.92
2023-05-25T21:48:38.925Z,98822.27
2023-05-25T21:51:06.156Z,98825.98
2023-05-25T21:53:33.660Z,98825.64
2023-05-25T21:56:00.971Z,98823.09
2023-05-25T21:58:28.120Z,98821.48
2023-05-25T22:00:55.618Z,98818.61
2023-05-25T22:03:22.819Z,98815.73
2023-05-25T22:05:52.758Z,98820.64
2023-05-25T22:08:20.000Z,98820.29
2023-05-25T22:10:47.060Z,98820.20
2023-05-25T22:13:14.327Z,98819.17
2023-05-25T22:15:41.488Z,98818.19
2023-05-25T22:18:08.594Z,98821.08
2023-05-25T22:20:39.024Z,98824.34
2023-05-25T22:23:06.284Z,98824.70
2023-05-25T22:25:33.503Z,98828.02
2023-05-25T22:28:00.883Z,98831.34
2023-05-25T22:30:28.648Z,98827.79
2023-05-25T22:32:55.837Z,98830.70
2023-05-25T22:35:23.469Z,98829.84
2023-05-25T22:37:50.611Z,98827.56
2023-05-25T22:40:17.815Z,98823.16
2023-05-25T22:42:50.097Z,98824.61
2023-05-25T22:45:18.278Z,98825.16
2023-05-25T22:47:47.453Z,98825.01
2023-05-25T22:50:14.545Z,98833.07
2023-05-25T22:52:41.737Z,98831.11
2023-05-25T22:55:12.732Z,98832.17
2023-05-25T22:57:40.487Z,98827.88
2023-05-25T23:00:08.565Z,98828.94
2023-05-25T23:02:36.856Z,98825.84
2023-05-25T23:05:05.428Z,98826.73
2023-05-25T23:07:32.867Z,98825.38
2023-05-25T23:10:00.359Z,98825.30
2023-05-25T23:12:27.648Z,98823.39
2023-05-25T23:14:56.637Z,98825.64
2023-05-25T23:17:23.706Z,98828.64
2023-05-25T23:19:50.911Z,98828.65
2023-05-25T23:22:17.930Z,98825.02
2023-05-25T23:24:45.125Z,98825.83
2023-05-25T23:27:12.523Z,98825.09
2023-05-25T23:29:40.084Z,98826.69
2023-05-25T23:32:07.244Z,98826.28
2023-05-25T23:34:35.868Z,98824.77
2023-05-25T23:37:06.294Z,98825.20
2023-05-25T23:39:34.041Z,98824.28
2023-05-25T23:42:02.231Z,98822.48
2023-05-25T23:44:29.485Z,98825.91
2023-05-25T23:46:56.908Z,98822.91
2023-05-25T23:49:24.089Z,98822.11
2023-05-25T23:51:51.323Z,98823.36
2023-05-25T23:54:18.507Z,98822.48
2023-05-25T23:56:45.699Z,98826.34
2023-05-25T23:59:15.227Z,98829.30
